Time;durP1;ratioP1;P1;durP2;ratioP2;P2;SDS_P1;SDS_P2;PMS_P1;PMS_P2;Temp;Humidity;BMP_temperature;BMP_pressure;BME280_temperature;BME280_humidity;BME280_pressure;Samples;Min_cycle;Max_cycle;Signal;HPM_P1;HPM_P2
2022/09/08 00:01:43;;;;;;;;;;;;;;;18.56;100.00;100992.47;5071094;28;19978;-36
2022/09/08 00:04:12;;;;;;;;;;;;;;;18.53;100.00;100987.53;5071338;28;19929;-37
2022/09/08 00:06:39;;;;;;;;;;;;;;;18.50;100.00;100991.03;5070970;28;20013;-35
2022/09/08 00:09:07;;;;;;;;;;;;;;;18.46;100.00;100977.97;5070941;28;19989;-40
2022/09/08 00:11:36;;;;;;;;;;;;;;;18.43;100.00;100973.00;5071372;28;19967;-35
2022/09/08 00:14:05;;;;;;;;;;;;;;;18.40;100.00;100957.56;5070910;28;19924;-33
2022/09/08 00:16:33;;;;;;;;;;;;;;;18.36;100.00;100959.47;5054702;28;20317;-37
2022/09/08 00:19:00;;;;;;;;;;;;;;;18.32;100.00;100941.56;5071416;28;19939;-33
2022/09/08 00:21:29;;;;;;;;;;;;;;;18.27;100.00;100930.47;5070589;28;19970;-39
2022/09/08 00:23:57;;;;;;;;;;;;;;;18.21;100.00;100927.03;5071036;28;20449;-32
2022/09/08 00:26:24;;;;;;;;;;;;;;;18.17;100.00;100923.28;5071467;28;19924;-34
2022/09/08 00:28:52;;;;;;;;;;;;;;;18.15;100.00;100905.88;5070595;28;19978;-37
2022/09/08 00:31:20;;;;;;;;;;;;;;;18.14;100.00;100909.84;5060373;28;19970;-35
2022/09/08 00:33:47;;;;;;;;;;;;;;;18.11;100.00;100904.06;5071905;28;19986;-39
2022/09/08 00:36:15;;;;;;;;;;;;;;;18.09;100.00;100910.06;5075526;28;20335;-33
2022/09/08 00:38:45;;;;;;;;;;;;;;;18.10;100.00;100906.06;5075019;28;19932;-32
2022/09/08 00:41:13;;;;;;;;;;;;;;;18.08;100.00;100894.31;5074967;28;19994;-38
2022/09/08 00:43:47;;;;;;;;;;;;;;;18.08;100.00;100888.66;5074394;28;20039;-39
2022/09/08 00:46:19;;;;;;;;;;;;;;;18.08;100.00;100879.34;5055171;28;19955;-37
2022/09/08 00:48:52;;;;;;;;;;;;;;;18.07;100.00;100870.06;5068102;28;19970;-33
2022/09/08 00:51:20;;;;;;;;;;;;;;;18.05;100.00;100851.81;5074999;28;19981;-33
2022/09/08 00:53:49;;;;;;;;;;;;;;;18.03;100.00;100852.16;5056977;28;20022;-35
2022/09/08 00:56:17;;;;;;;;;;;;;;;18.00;100.00;100840.72;5074399;28;19935;-32
2022/09/08 00:58:45;;;;;;;;;;;;;;;17.97;100.00;100825.34;5074369;28;20416;-32
2022/09/08 01:01:12;;;;;;;;;;;;;;;17.95;100.00;100826.84;5074819;28;19996;-33
2022/09/08 01:03:41;;;;;;;;;;;;;;;17.93;100.00;100830.03;5074154;28;20045;-34
2022/09/08 01:06:14;;;;;;;;;;;;;;;17.90;100.00;100825.91;5074271;28;19928;-37
2022/09/08 01:14:42;;;;;;;;;;;;;;;17.78;100.00;100823.06;5074226;28;20389;-33
2022/09/08 01:17:14;;;;;;;;;;;;;;;17.75;100.00;100815.28;5062195;28;20378;-34
2022/09/08 01:19:42;;;;;;;;;;;;;;;17.73;100.00;100820.44;5073863;28;19978;-33
2022/09/08 01:22:17;;;;;;;;;;;;;;;17.71;100.00;100814.34;5074157;28;20377;-39
2022/09/08 01:24:51;;;;;;;;;;;;;;;17.69;100.00;100813.84;5073543;28;19925;-31
2022/09/08 01:27:22;;;;;;;;;;;;;;;17.68;100.00;100806.56;5074162;28;19967;-33
2022/09/08 01:29:52;;;;;;;;;;;;;;;17.65;100.00;100812.88;5074044;28;19970;-33
2022/09/08 01:32:20;;;;;;;;;;;;;;;17.64;100.00;100810.38;5059459;28;19924;-33
2022/09/08 01:34:48;;;;;;;;;;;;;;;17.62;100.00;100805.09;5055597;28;19964;-34
2022/09/08 01:37:15;;;;;;;;;;;;;;;17.60;100.00;100812.25;5073587;28;19924;-41
2022/09/08 01:39:43;;;;;;;;;;;;;;;17.58;100.00;100810.59;5073935;28;19928;-34
2022/09/08 01:42:11;;;;;;;;;;;;;;;17.57;100.00;100810.97;5073458;28;19924;-40
2022/09/08 01:44:40;;;;;;;;;;;;;;;17.54;100.00;100812.47;5072978;28;19929;-33
2022/09/08 01:47:07;;;;;;;;;;;;;;;17.52;100.00;100811.19;5069212;28;19925;-32
2022/09/08 01:49:35;;;;;;;;;;;;;;;17.50;100.00;100811.53;5073983;28;19936;-41
2022/09/08 01:52:02;;;;;;;;;;;;;;;17.51;100.00;100804.72;5073725;28;19932;-42
2022/09/08 01:54:30;;;;;;;;;;;;;;;17.51;100.00;100801.88;5073573;28;19978;-39
2022/09/08 01:56:58;;;;;;;;;;;;;;;17.52;100.00;100797.06;5073451;28;20389;-38
2022/09/08 01:59:26;;;;;;;;;;;;;;;17.51;100.00;100799.06;5073309;28;19969;-32
2022/09/08 02:01:54;;;;;;;;;;;;;;;17.50;100.00;100794.59;5072974;28;20081;-36
2022/09/08 02:04:22;;;;;;;;;;;;;;;17.50;100.00;100793.78;5073692;28;19968;-37
2022/09/08 02:06:50;;;;;;;;;;;;;;;17.49;100.00;100792.13;5072797;28;19974;-36
2022/09/08 02:09:18;;;;;;;;;;;;;;;17.50;100.00;100794.59;5073854;28;19966;-34
2022/09/08 02:11:48;;;;;;;;;;;;;;;17.50;100.00;100802.22;5073204;28;20389;-32
2022/09/08 02:14:15;;;;;;;;;;;;;;;17.50;100.00;100794.59;5072926;28;19925;-32
2022/09/08 02:16:43;;;;;;;;;;;;;;;17.50;100.00;100793.78;5072826;28;20378;-33
2022/09/08 02:19:12;;;;;;;;;;;;;;;17.49;100.00;100792.94;5073057;28;19931;-39
2022/09/08 02:21:40;;;;;;;;;;;;;;;17.48;100.00;100791.28;5072913;28;19928;-34
2022/09/08 02:24:08;;;;;;;;;;;;;;;17.48;100.00;100796.94;5073208;28;19924;-36
2022/09/08 02:26:37;;;;;;;;;;;;;;;17.46;100.00;100793.63;5072528;28;19960;-37
2022/09/08 02:29:08;;;;;;;;;;;;;;;17.46;100.00;100793.63;5067957;28;19932;-37
2022/09/08 02:31:35;;;;;;;;;;;;;;;17.45;100.00;100780.69;5072943;28;20256;-31
2022/09/08 02:34:03;;;;;;;;;;;;;;;17.45;100.00;100785.50;5072208;28;20649;-33
2022/09/08 02:36:32;;;;;;;;;;;;;;;17.45;100.00;100779.88;5072635;28;19925;-41
2022/09/08 02:39:00;;;;;;;;;;;;;;;17.45;100.00;100782.69;5072723;28;19982;-36
2022/09/08 02:41:28;;;;;;;;;;;;;;;17.44;100.00;100773.41;5072314;28;19929;-31
2022/09/08 02:43:56;;;;;;;;;;;;;;;17.44;100.00;100787.50;5072318;28;20385;-34
2022/09/08 02:46:24;;;;;;;;;;;;;;;17.46;100.00;100781.53;5072785;28;20011;-37
2022/09/08 02:48:52;;;;;;;;;;;;;;;17.47;100.00;100784.00;5071940;28;19925;-42
2022/09/08 02:51:20;;;;;;;;;;;;;;;17.48;100.00;100780.00;5072189;28;19989;-33
2022/09/08 02:53:49;;;;;;;;;;;;;;;17.48;100.00;100771.53;5070764;28;19928;-32
2022/09/08 02:56:16;;;;;;;;;;;;;;;17.51;100.00;100778.50;5069817;28;19924;-33
2022/09/08 02:58:44;;;;;;;;;;;;;;;17.50;100.00;100772.03;5070461;28;20419;-32
2022/09/08 03:01:12;;;;;;;;;;;;;;;17.52;100.00;100771.69;5071338;28;20339;-32
2022/09/08 03:03:39;;;;;;;;;;;;;;;17.55;100.00;100773.81;5070719;28;19928;-35
2022/09/08 03:06:07;;;;;;;;;;;;;;;17.57;100.00;100768.66;5071611;28;20457;-31
2022/09/08 03:08:35;;;;;;;;;;;;;;;17.60;100.00;100764.28;5071061;28;19928;-35
2022/09/08 03:11:04;;;;;;;;;;;;;;;17.61;100.00;100765.91;5072325;28;19924;-38
2022/09/08 03:13:32;;;;;;;;;;;;;;;17.64;100.00;100759.59;5071180;28;20386;-32
2022/09/08 03:15:59;;;;;;;;;;;;;;;17.67;100.00;100764.56;5071766;28;19981;-33
2022/09/08 03:18:27;;;;;;;;;;;;;;;17.69;100.00;100779.16;5071552;28;19998;-40
2022/09/08 03:20:59;;;;;;;;;;;;;;;17.72;100.00;100758.72;5071516;28;19924;-38
2022/09/08 03:23:28;;;;;;;;;;;;;;;17.74;100.00;100770.47;5071332;28;19933;-33
2022/09/08 03:25:56;;;;;;;;;;;;;;;17.77;100.00;100775.44;5071531;28;20393;-33
2022/09/08 03:28:25;;;;;;;;;;;;;;;17.78;100.00;100771.44;5070891;28;19978;-33
2022/09/08 03:30:52;;;;;;;;;;;;;;;17.81;100.00;100777.16;5069183;28;19928;-33
2022/09/08 03:33:20;;;;;;;;;;;;;;;17.83;100.00;100769.19;5068296;28;19924;-33
2022/09/08 03:35:48;;;;;;;;;;;;;;;17.87;100.00;100770.13;5070644;28;19933;-36
2022/09/08 03:38:16;;;;;;;;;;;;;;;17.88;100.00;100765.31;5070460;28;19937;-34
2022/09/08 03:40:44;;;;;;;;;;;;;;;17.90;100.00;100765.78;5070678;28;19929;-33
2022/09/08 03:43:12;;;;;;;;;;;;;;;17.92;100.00;100757.78;5071431;28;19971;-36
2022/09/08 03:45:45;;;;;;;;;;;;;;;17.94;100.00;100766.75;5070949;28;19928;-33
2022/09/08 03:48:13;;;;;;;;;;;;;;;17.95;100.00;100759.91;5071353;28;19940;-31
2022/09/08 03:50:41;;;;;;;;;;;;;;;17.96;100.00;100766.41;5071021;28;20438;-33
2022/09/08 03:53:08;;;;;;;;;;;;;;;17.95;100.00;100759.91;5071656;28;19989;-31
2022/09/08 03:55:39;;;;;;;;;;;;;;;17.95;100.00;100761.91;5071373;28;19987;-40
2022/09/08 03:58:06;;;;;;;;;;;;;;;17.94;100.00;100758.28;5071170;28;20409;-32
2022/09/08 04:00:34;;;;;;;;;;;;;;;17.93;100.00;100750.16;5070903;28;19967;-37
2022/09/08 04:03:03;;;;;;;;;;;;;;;17.92;100.00;100756.97;5071814;28;19982;-33
2022/09/08 04:05:31;;;;;;;;;;;;;;;17.89;100.00;100750.84;5070629;28;19932;-31
2022/09/08 04:07:59;;;;;;;;;;;;;;;17.88;100.00;100748.38;5071356;28;19925;-33
2022/09/08 04:10:26;;;;;;;;;;;;;;;17.84;100.00;100739.78;5070960;28;20417;-31
2022/09/08 04:12:54;;;;;;;;;;;;;;;17.80;100.00;100743.66;5070955;28;19952;-38
2022/09/08 04:15:21;;;;;;;;;;;;;;;17.77;100.00;100742.38;5070830;28;19925;-39
2022/09/08 04:17:49;;;;;;;;;;;;;;;17.75;100.00;100741.06;5055596;28;19925;-37
2022/09/08 04:20:18;;;;;;;;;;;;;;;17.71;100.00;100734.47;5059860;28;20076;-32
2022/09/08 04:22:46;;;;;;;;;;;;;;;17.68;100.00;100730.34;5070981;28;19928;-36
2022/09/08 04:25:14;;;;;;;;;;;;;;;17.66;100.00;100740.34;5052978;28;20340;-33
2022/09/08 04:27:41;;;;;;;;;;;;;;;17.63;100.00;100738.19;5070592;28;19932;-38
2022/09/08 04:30:10;;;;;;;;;;;;;;;17.61;100.00;100734.88;5070857;28;19960;-31
2022/09/08 04:32:38;;;;;;;;;;;;;;;17.58;100.00;100729.97;5066957;28;19951;-39
2022/09/08 04:35:06;;;;;;;;;;;;;;;17.52;100.00;100729.34;5070419;28;19937;-37
2022/09/08 04:37:36;;;;;;;;;;;;;;;17.48;100.00;100729.22;5070973;28;19928;-35
2022/09/08 04:40:04;;;;;;;;;;;;;;;17.46;100.00;100720.28;5069906;28;19924;-39
2022/09/08 04:42:31;;;;;;;;;;;;;;;17.46;100.00;100725.94;5062526;28;19924;-32
2022/09/08 04:44:59;;;;;;;;;;;;;;;17.43;100.00;100720.97;5069705;28;19928;-39
2022/09/08 04:47:26;;;;;;;;;;;;;;;17.44;100.00;100716.97;5069859;28;19932;-38
2022/09/08 04:49:54;;;;;;;;;;;;;;;17.42;100.00;100719.31;5070939;28;19924;-35
2022/09/08 04:52:24;;;;;;;;;;;;;;;17.41;100.00;100717.69;5052392;28;19990;-32
2022/09/08 04:54:59;;;;;;;;;;;;;;;17.40;100.00;100718.84;5070823;28;20019;-32
2022/09/08 04:57:27;;;;;;;;;;;;;;;17.39;100.00;100719.19;5070374;28;19933;-39
2022/09/08 04:59:55;;;;;;;;;;;;;;;17.38;100.00;100712.75;5071381;28;19978;-31
2022/09/08 05:02:22;;;;;;;;;;;;;;;17.39;100.00;100722.84;5070176;28;20336;-31
2022/09/08 05:04:50;;;;;;;;;;;;;;;17.38;100.00;100724.03;5071096;28;19932;-30
2022/09/08 05:07:22;;;;;;;;;;;;;;;17.36;100.00;100715.09;5069988;28;19929;-40
2022/09/08 05:09:50;;;;;;;;;;;;;;;17.33;100.00;100704.50;5070080;28;19929;-32
2022/09/08 05:12:19;;;;;;;;;;;;;;;17.32;100.00;100694.41;5070186;28;19988;-37
2022/09/08 05:14:46;;;;;;;;;;;;;;;17.32;100.00;100680.28;5050590;28;20426;-34
2022/09/08 05:17:14;;;;;;;;;;;;;;;17.32;100.00;100674.66;5059156;28;19924;-32
2022/09/08 05:19:47;;;;;;;;;;;;;;;17.31;100.00;100675.81;5068896;28;19936;-34
2022/09/08 05:22:14;;;;;;;;;;;;;;;17.31;100.00;100670.19;5073402;28;20370;-32
2022/09/08 05:24:42;;;;;;;;;;;;;;;17.32;100.00;100685.13;5073611;28;19925;-32
2022/09/08 05:27:09;;;;;;;;;;;;;;;17.32;100.00;100694.41;5073546;28;19968;-28
2022/09/08 05:29:38;;;;;;;;;;;;;;;17.32;100.00;100683.13;5072387;28;19924;-34
2022/09/08 05:32:06;;;;;;;;;;;;;;;17.31;100.00;100692.75;5056224;28;19925;-34
2022/09/08 05:34:34;;;;;;;;;;;;;;;17.30;100.00;100696.75;5073688;28;20343;-35
2022/09/08 05:37:01;;;;;;;;;;;;;;;17.30;100.00;100705.19;5073215;28;19924;-44
2022/09/08 05:39:29;;;;;;;;;;;;;;;17.30;100.00;100710.03;5073510;28;19932;-37
2022/09/08 05:41:58;;;;;;;;;;;;;;;17.29;100.00;100714.84;5073432;28;20408;-33
2022/09/08 05:44:26;;;;;;;;;;;;;;;17.28;100.00;100721.66;5068443;28;20024;-31
2022/09/08 05:46:55;;;;;;;;;;;;;;;17.27;100.00;100727.63;5073621;28;20018;-39
2022/09/08 05:49:23;;;;;;;;;;;;;;;17.25;100.00;100730.78;5073694;28;19928;-34
2022/09/08 05:51:52;;;;;;;;;;;;;;;17.20;100.00;100733.81;5073462;28;19967;-30
2022/09/08 05:54:20;;;;;;;;;;;;;;;17.20;100.00;100728.19;5073163;28;19931;-32
2022/09/08 05:56:47;;;;;;;;;;;;;;;17.18;100.00;100731.38;5073765;28;19939;-37
2022/09/08 05:59:15;;;;;;;;;;;;;;;17.16;100.00;100732.91;5072504;28;20503;-36
2022/09/08 06:01:43;;;;;;;;;;;;;;;17.15;100.00;100737.72;5073891;28;19925;-31
2022/09/08 06:04:12;;;;;;;;;;;;;;;17.16;100.00;100738.53;5073300;28;19932;-32
2022/09/08 06:06:39;;;;;;;;;;;;;;;17.16;100.00;100735.72;5073378;28;19924;-32
2022/09/08 06:09:07;;;;;;;;;;;;;;;17.16;100.00;100728.09;5073331;28;20271;-31
2022/09/08 06:11:36;;;;;;;;;;;;;;;17.16;100.00;100732.91;5072714;28;19959;-39
2022/09/08 06:14:03;;;;;;;;;;;;;;;17.16;100.00;100738.53;5073453;28;19964;-35
2022/09/08 06:16:31;;;;;;;;;;;;;;;17.16;100.00;100738.53;5073237;28;19964;-39
2022/09/08 06:18:59;;;;;;;;;;;;;;;17.16;100.00;100739.34;5072645;28;19935;-31
2022/09/08 06:21:29;;;;;;;;;;;;;;;17.16;100.00;100742.19;5073002;28;19943;-30
2022/09/08 06:23:57;;;;;;;;;;;;;;;17.18;100.00;100730.56;5073722;28;19924;-34
2022/09/08 06:26:40;;;;;;;;;;;;;;;17.17;100.00;100734.53;5067978;28;20007;-32
2022/09/08 06:29:10;;;;;;;;;;;;;;;17.17;100.00;100728.91;5045532;28;19990;-32
2022/09/08 06:31:40;;;;;;;;;;;;;;;17.16;100.00;100732.91;5028712;28;19931;-39
2022/09/08 06:34:14;;;;;;;;;;;;;;;17.16;100.00;100730.06;5016917;28;19965;-38
2022/09/08 06:36:47;;;;;;;;;;;;;;;17.14;100.00;100726.78;5032996;28;19925;-37
2022/09/08 06:39:17;;;;;;;;;;;;;;;17.14;100.00;100732.41;5032954;28;20410;-32
2022/09/08 06:41:47;;;;;;;;;;;;;;;17.13;100.00;100728.78;5032764;28;19925;-36
2022/09/08 06:44:19;;;;;;;;;;;;;;;17.12;100.00;100732.75;5032920;28;19952;-33
2022/09/08 06:46:47;;;;;;;;;;;;;;;17.11;100.00;100730.28;5032288;28;20302;-32
2022/09/08 06:49:14;;;;;;;;;;;;;;;17.10;100.00;100739.91;5032392;28;19983;-31
2022/09/08 06:51:48;;;;;;;;;;;;;;;17.08;100.00;100731.78;5032757;28;19979;-32
2022/09/08 06:54:25;;;;;;;;;;;;;;;17.08;100.00;100730.97;5032364;28;19929;-31
2022/09/08 06:56:57;;;;;;;;;;;;;;;17.07;100.00;100732.13;5031634;28;19971;-31
2022/09/08 06:59:51;;;;;;;;;;;;;;;17.05;100.00;100740.13;5032379;28;19979;-36
2022/09/08 07:02:27;;;;;;;;;;;;;;;17.02;100.00;100737.97;5032025;28;19933;-39
2022/09/08 07:04:59;;;;;;;;;;;;;;;16.98;100.00;100731.41;5032669;28;20386;-31
2022/09/08 07:07:33;;;;;;;;;;;;;;;16.99;100.00;100735.84;5032256;28;19929;-42
2022/09/08 07:10:03;;;;;;;;;;;;;;;16.93;100.00;100735.25;5032840;28;20321;-31
2022/09/08 07:12:40;;;;;;;;;;;;;;;16.91;100.00;100731.13;5028788;28;19929;-31
2022/09/08 07:15:23;;;;;;;;;;;;;;;16.89;100.00;100723.03;5031993;28;19929;-32
2022/09/08 07:17:51;;;;;;;;;;;;;;;16.93;100.00;100728.78;5028987;28;19960;-31
2022/09/08 07:20:19;;;;;;;;;;;;;;;16.93;100.00;100734.44;5032314;28;19975;-42
2022/09/08 07:22:50;;;;;;;;;;;;;;;16.93;100.00;100735.25;5031365;28;19929;-33
2022/09/08 07:25:20;;;;;;;;;;;;;;;16.93;100.00;100734.44;5032337;28;20028;-31
2022/09/08 07:27:52;;;;;;;;;;;;;;;16.93;100.00;100735.25;5031840;28;19925;-36
2022/09/08 07:30:19;;;;;;;;;;;;;;;16.93;100.00;100735.25;5050426;28;19970;-40
2022/09/08 07:32:48;;;;;;;;;;;;;;;16.95;100.00;100734.91;5071636;28;19931;-37
2022/09/08 07:35:45;;;;;;;;;;;;;;;16.96;100.00;100739.38;5071813;28;20285;-38
2022/09/08 07:38:18;;;;;;;;;;;;;;;16.97;100.00;100741.88;5066927;28;19983;-37
2022/09/08 07:40:49;;;;;;;;;;;;;;;16.98;100.00;100745.50;5071965;28;20435;-32
2022/09/08 07:43:17;;;;;;;;;;;;;;;16.98;100.00;100745.50;5052801;28;19986;-31
2022/09/08 07:45:48;;;;;;;;;;;;;;;16.95;100.00;100746.19;5071676;28;19928;-39
2022/09/08 07:48:23;;;;;;;;;;;;;;;16.90;100.00;100750.03;5071372;28;19935;-31
2022/09/08 07:50:56;;;;;;;;;;;;;;;16.89;100.00;100756.84;5071285;28;19959;-34
2022/09/08 07:53:43;;;;;;;;;;;;;;;16.91;100.00;100753.69;5071001;28;19981;-32
2022/09/08 07:56:14;;;;;;;;;;;;;;;16.92;100.00;100750.53;5072047;28;19978;-40
2022/09/08 07:58:46;;;;;;;;;;;;;;;16.93;100.00;100757.81;5070714;28;19985;-33
2022/09/08 08:01:18;;;;;;;;;;;;;;;16.93;100.00;100759.81;5071878;28;19975;-32
2022/09/08 08:03:53;;;;;;;;;;;;;;;16.93;100.00;100755.00;5070730;28;19924;-33
2022/09/08 08:06:31;;;;;;;;;;;;;;;16.93;100.00;100756.97;5071275;28;19929;-32
2022/09/08 08:09:03;;;;;;;;;;;;;;;16.90;100.00;100755.69;5071123;28;19940;-30
2022/09/08 08:11:36;;;;;;;;;;;;;;;16.85;100.00;100753.06;5071391;28;19928;-39
2022/09/08 08:14:10;;;;;;;;;;;;;;;16.80;100.00;100762.53;5070978;28;20011;-34
2022/09/08 08:16:44;;;;;;;;;;;;;;;16.79;100.00;100760.88;5071395;28;19931;-34
2022/09/08 08:19:19;;;;;;;;;;;;;;;16.79;100.00;100763.69;5070517;28;20359;-37
2022/09/08 08:21:49;;;;;;;;;;;;;;;16.79;100.00;100762.88;5071477;28;19966;-33
2022/09/08 08:24:24;;;;;;;;;;;;;;;16.79;100.00;100758.06;5071449;28;20373;-31
2022/09/08 08:26:58;;;;;;;;;;;;;;;16.81;100.00;100752.91;5070558;28;19932;-31
2022/09/08 08:29:33;;;;;;;;;;;;;;;16.86;100.00;100751.88;5070639;28;19932;-31
2022/09/08 08:32:04;;;;;;;;;;;;;;;16.88;100.00;100758.00;5070783;28;20428;-32
2022/09/08 08:34:54;;;;;;;;;;;;;;;16.90;100.00;100758.50;5070488;28;20032;-32
2022/09/08 08:37:24;;;;;;;;;;;;;;;16.92;100.00;100756.16;5071341;28;19943;-32
2022/09/08 08:39:53;;;;;;;;;;;;;;;16.94;100.00;100755.81;5051843;28;19925;-38
2022/09/08 08:42:31;;;;;;;;;;;;;;;16.96;100.00;100764.75;5070932;28;19924;-38
2022/09/08 08:45:16;;;;;;;;;;;;;;;16.98;100.00;100763.25;5070743;28;20065;-40
2022/09/08 08:48:11;;;;;;;;;;;;;;;17.02;100.00;100763.34;5070213;28;19924;-32
2022/09/08 08:50:47;;;;;;;;;;;;;;;17.01;100.00;100767.34;5069984;28;19925;-33
2022/09/08 08:53:34;;;;;;;;;;;;;;;17.00;100.00;100763.69;5071402;28;19928;-37
2022/09/08 08:56:24;;;;;;;;;;;;;;;17.01;100.00;100765.34;5070033;28;19928;-33
2022/09/08 08:59:00;;;;;;;;;;;;;;;17.04;100.00;100772.28;5074814;28;19979;-35
2022/09/08 09:01:35;;;;;;;;;;;;;;;17.05;100.00;100765.50;5074213;28;20385;-32
2022/09/08 09:04:09;;;;;;;;;;;;;;;17.06;100.00;100772.78;5056602;28;20019;-33
2022/09/08 09:06:45;;;;;;;;;;;;;;;17.07;100.00;100763.16;5074941;28;19924;-32
2022/09/08 09:09:25;;;;;;;;;;;;;;;17.08;100.00;100756.34;5073812;28;19955;-36
2022/09/08 09:12:00;;;;;;;;;;;;;;;17.05;100.00;100759.84;5074583;28;19928;-39
2022/09/08 09:14:49;;;;;;;;;;;;;;;17.06;100.00;100767.13;5074016;28;19978;-32
2022/09/08 09:17:43;;;;;;;;;;;;;;;17.06;100.00;100762.31;5073469;28;20038;-32
2022/09/08 09:20:19;;;;;;;;;;;;;;;17.08;100.00;100761.97;5074470;28;20404;-31
2022/09/08 09:22:52;;;;;;;;;;;;;;;17.09;100.00;100766.47;5073615;28;20405;-36
2022/09/08 09:25:20;;;;;;;;;;;;;;;17.10;100.00;100768.09;5074327;28;20001;-35
2022/09/08 09:27:56;;;;;;;;;;;;;;;17.13;100.00;100771.06;5074492;28;19932;-34
2022/09/08 09:30:25;;;;;;;;;;;;;;;17.19;100.00;100777.28;5073276;28;20293;-40
2022/09/08 09:33:05;;;;;;;;;;;;;;;17.21;100.00;100774.97;5074066;28;19929;-39
2022/09/08 09:35:47;;;;;;;;;;;;;;;17.26;100.00;100776.75;5073574;28;19935;-31
2022/09/08 09:38:29;;;;;;;;;;;;;;;17.31;100.00;100777.38;5073949;28;19937;-30
2022/09/08 09:41:12;;;;;;;;;;;;;;;17.30;100.00;100786.16;5074196;28;19970;-35
2022/09/08 09:43:47;;;;;;;;;;;;;;;17.28;100.00;100786.50;5069337;28;20033;-33
2022/09/08 09:46:37;;;;;;;;;;;;;;;17.26;100.00;100786.03;5073702;28;20370;-40
2022/09/08 09:49:14;;;;;;;;;;;;;;;17.19;100.00;100800.69;5060900;28;20026;-38
2022/09/08 09:51:48;;;;;;;;;;;;;;;17.08;100.00;100787.38;5065866;28;19982;-31
2022/09/08 09:54:23;;;;;;;;;;;;;;;16.97;100.00;100778.50;5073801;28;19928;-32
2022/09/08 09:57:14;;;;;;;;;;;;;;;16.91;100.00;100771.41;5072701;28;19977;-35
2022/09/08 10:00:13;;;;;;;;;;;;;;;16.88;100.00;100766.47;5064619;28;19959;-31
2022/09/08 10:02:56;;;;;;;;;;;;;;;16.93;100.00;100771.06;5073310;28;19978;-31
2022/09/08 10:05:42;;;;;;;;;;;;;;;16.97;100.00;100764.41;5073069;28;19925;-32
2022/09/08 10:08:22;;;;;;;;;;;;;;;17.03;100.00;100762.19;5073265;28;19951;-36
2022/09/08 10:11:04;;;;;;;;;;;;;;;17.12;100.00;100765.78;5073340;28;19924;-31
2022/09/08 10:13:45;;;;;;;;;;;;;;;17.23;100.00;100767.81;5064906;28;20377;-37
2022/09/08 10:16:31;;;;;;;;;;;;;;;17.30;100.00;100766.44;5073605;28;19936;-33
2022/09/08 10:19:15;;;;;;;;;;;;;;;17.36;100.00;100771.50;5071317;28;19935;-38
2022/09/08 10:22:11;;;;;;;;;;;;;;;17.44;100.00;100783.88;5073226;28;19932;-32
2022/09/08 10:24:49;;;;;;;;;;;;;;;17.45;100.00;100779.88;5070910;28;19924;-36
2022/09/08 10:27:28;;;;;;;;;;;;;;;17.41;100.00;100793.84;5073131;28;19943;-32
2022/09/08 10:30:07;;;;;;;;;;;;;;;17.35;100.00;100786.78;5072740;28;19962;-35
2022/09/08 10:32:47;;;;;;;;;;;;;;;17.24;100.00;100779.91;5072843;28;19939;-42
2022/09/08 10:35:39;;;;;;;;;;;;;;;17.09;100.00;100772.91;5072888;28;20343;-32
2022/09/08 10:38:29;;;;;;;;;;;;;;;17.02;100.00;100749.25;5057923;28;19928;-40
2022/09/08 10:41:20;;;;;;;;;;;;;;;17.06;100.00;100762.31;5071995;28;19929;-34
2022/09/08 10:44:07;;;;;;;;;;;;;;;17.07;100.00;100751.88;5016117;28;19930;-32
2022/09/08 10:47:08;;;;;;;;;;;;;;;17.08;100.00;100760.00;5052433;28;19982;-33
2022/09/08 10:49:58;;;;;;;;;;;;;;;17.09;100.00;100766.47;5009427;28;19934;-36
2022/09/08 10:52:27;;;;;;;;;;;;;;;17.06;100.00;100753.03;5010757;28;19929;-36
2022/09/08 10:55:08;;;;;;;;;;;;;;;17.08;100.00;100753.53;5044025;28;19935;-39
2022/09/08 10:57:45;;;;;;;;;;;;;;;17.11;100.00;100764.13;5072839;28;19928;-32
2022/09/08 11:00:15;;;;;;;;;;;;;;;17.10;100.00;100760.47;5064896;28;19982;-37
2022/09/08 11:02:53;;;;;;;;;;;;;;;17.13;100.00;100750.50;5072449;28;19933;-35
2022/09/08 11:05:39;;;;;;;;;;;;;;;17.20;100.00;100754.41;5064841;28;20091;-35
2022/09/08 11:08:28;;;;;;;;;;;;;;;17.30;100.00;100761.63;5072038;28;19932;-38
2022/09/08 11:11:05;;;;;;;;;;;;;;;17.38;100.00;100757.06;5068129;28;20275;-33
2022/09/08 11:13:35;;;;;;;;;;;;;;;17.53;100.00;100754.41;5057293;28;20743;-33
2022/09/08 11:16:20;;;;;;;;;;;;;;;17.88;100.00;100754.03;5066368;28;19973;-32
2022/09/08 11:18:53;;;;;;;;;;;;;;;18.35;100.00;100753.56;5057909;28;20005;-32
2022/09/08 11:21:24;;;;;;;;;;;;;;;18.72;100.00;100755.19;5071540;28;20313;-43
2022/09/08 11:23:58;;;;;;;;;;;;;;;19.08;100.00;100750.59;5056330;28;19978;-33
2022/09/08 11:26:35;;;;;;;;;;;;;;;19.41;100.00;100748.31;5067703;28;19925;-33
2022/09/08 11:29:05;;;;;;;;;;;;;;;19.67;100.00;100749.88;5055877;28;19962;-34
2022/09/08 11:31:35;;;;;;;;;;;;;;;19.73;100.00;100759.75;5071984;28;19995;-40
2022/09/08 11:34:22;;;;;;;;;;;;;;;19.76;100.00;100759.03;5072226;28;20014;-32
2022/09/08 11:37:05;;;;;;;;;;;;;;;19.81;100.00;100770.06;5067092;28;19928;-41
2022/09/08 11:39:40;;;;;;;;;;;;;;;20.06;100.00;100760.22;5045084;28;20064;-32
2022/09/08 11:42:26;;;;;;;;;;;;;;;20.42;100.00;100742.09;5071151;28;19928;-33
2022/09/08 11:45:00;;;;;;;;;;;;;;;20.83;100.00;100743.44;5071509;28;19960;-34
2022/09/08 11:47:39;;;;;;;;;;;;;;;20.93;100.00;100737.19;5071665;28;19925;-32
2022/09/08 11:50:17;;;;;;;;;;;;;;;20.93;100.00;100742.06;5070730;28;19925;-34
2022/09/08 11:53:19;;;;;;;;;;;;;;;20.95;100.00;100736.81;5071672;28;19924;-42
2022/09/08 11:56:16;;;;;;;;;;;;;;;20.95;100.00;100751.84;5070681;28;20023;-37
2022/09/08 11:58:53;;;;;;;;;;;;;;;20.96;100.00;100766.84;5051510;28;19952;-33
2022/09/08 12:01:25;;;;;;;;;;;;;;;20.75;100.00;100764.34;5066766;28;19924;-36
2022/09/08 12:04:11;;;;;;;;;;;;;;;20.60;100.00;100759.53;5051005;28;19972;-31
2022/09/08 12:06:57;;;;;;;;;;;;;;;20.53;100.00;100762.22;5067729;28;20297;-32
2022/09/08 12:09:32;;;;;;;;;;;;;;;20.61;100.00;100761.16;5071615;28;19958;-41
2022/09/08 12:12:11;;;;;;;;;;;;;;;20.63;100.00;100753.13;5070358;28;19968;-32
2022/09/08 12:14:47;;;;;;;;;;;;;;;20.66;100.00;100749.53;5071743;28;19979;-37
2022/09/08 12:17:19;;;;;;;;;;;;;;;20.68;100.00;100755.66;5070760;28;20861;-31
2022/09/08 12:19:53;;;;;;;;;;;;;;;20.64;100.00;100749.91;5071098;28;19924;-32
2022/09/08 12:22:35;;;;;;;;;;;;;;;20.78;100.00;100762.78;5071137;28;20392;-38
2022/09/08 12:25:13;;;;;;;;;;;;;;;20.83;100.00;100756.81;5058487;28;19929;-34
2022/09/08 12:28:17;;;;;;;;;;;;;;;20.80;100.00;100751.88;5071236;28;19988;-38
2022/09/08 12:31:00;;;;;;;;;;;;;;;20.76;100.00;100746.13;5075373;28;20357;-32
2022/09/08 12:33:46;;;;;;;;;;;;;;;20.78;100.00;100749.44;5075268;28;19924;-40
2022/09/08 12:36:20;;;;;;;;;;;;;;;20.73;100.00;100744.03;5059442;28;19994;-41
2022/09/08 12:38:55;;;;;;;;;;;;;;;20.75;100.00;100741.66;5074770;28;19929;-37
2022/09/08 12:41:36;;;;;;;;;;;;;;;20.72;100.00;100742.41;5058701;28;19932;-41
2022/09/08 12:44:08;;;;;;;;;;;;;;;20.67;100.00;100742.69;5071148;28;19954;-39
2022/09/08 12:46:53;;;;;;;;;;;;;;;20.64;100.00;100737.75;5059232;28;20326;-40
2022/09/08 12:49:51;;;;;;;;;;;;;;;20.58;100.00;100747.75;5072156;28;19929;-35
2022/09/08 12:52:27;;;;;;;;;;;;;;;20.50;100.00;100734.59;5074667;28;19924;-33
2022/09/08 12:55:00;;;;;;;;;;;;;;;20.54;100.00;100739.16;5074874;28;20342;-40
2022/09/08 12:57:46;;;;;;;;;;;;;;;20.67;100.00;100741.84;5074823;28;19925;-41
2022/09/08 13:00:16;;;;;;;;;;;;;;;20.85;100.00;100738.22;5069918;28;19978;-32
2022/09/08 13:02:56;;;;;;;;;;;;;;;20.93;100.00;100736.38;5074843;28;19955;-31
2022/09/08 13:05:39;;;;;;;;;;;;;;;20.99;100.00;100730.00;5074684;28;19935;-35